Time;durP1;ratioP1;P1;durP2;ratioP2;P2;SDS_P1;SDS_P2;PMS_P1;PMS_P2;Temp;Humidity;BMP_temperature;BMP_pressure;BME280_temperature;BME280_humidity;BME280_pressure;Samples;Min_cycle;Max_cycle;Signal;HPM_P1;HPM_P2
2022/05/21 00:00:20;;;;;;;11.27;5.50;;;19.50;80.00;;;;;;5111537;28;20051;-69
2022/05/21 00:03:24;;;;;;;15.50;6.25;;;19.60;80.00;;;;;;5111567;28;20039;-69
2022/05/21 00:06:27;;;;;;;11.43;6.68;;;19.60;80.20;;;;;;5111481;28;20042;-69
2022/05/21 00:09:32;;;;;;;12.45;7.47;;;19.60;80.30;;;;;;5110687;28;20043;-69
2022/05/21 00:12:36;;;;;;;15.20;6.60;;;19.60;80.60;;;;;;5111510;28;20042;-68
2022/05/21 00:15:41;;;;;;;12.05;6.43;;;19.50;80.90;;;;;;5111458;28;20050;-69
2022/05/21 00:18:45;;;;;;;17.48;6.85;;;19.30;81.50;;;;;;5111328;28;20038;-69
2022/05/21 00:21:49;;;;;;;16.25;6.75;;;19.30;82.30;;;;;;5110709;28;20391;-69
2022/05/21 00:24:53;;;;;;;8.73;6.63;;;19.30;82.10;;;;;;5111285;28;20494;-69
2022/05/21 00:27:57;;;;;;;16.92;8.00;;;19.30;82.80;;;;;;5111176;28;20054;-69
2022/05/21 00:31:02;;;;;;;23.08;7.93;;;19.30;82.20;;;;;;5111416;28;20386;-69
2022/05/21 00:34:06;;;;;;;20.15;7.55;;;19.30;82.40;;;;;;5110078;28;20101;-69
2022/05/21 00:37:10;;;;;;;17.75;7.70;;;19.20;82.60;;;;;;5110554;28;20050;-69
2022/05/21 00:40:14;;;;;;;17.83;8.43;;;19.20;82.70;;;;;;5111391;28;20489;-69
2022/05/21 00:43:36;;;;;;;24.88;9.18;;;19.20;83.10;;;;;;5110997;28;20041;-69
2022/05/21 00:46:43;;;;;;;19.38;8.15;;;19.20;83.20;;;;;;5111223;28;20054;-69
2022/05/21 00:49:48;;;;;;;15.98;8.13;;;19.10;83.50;;;;;;5110360;28;20043;-69
2022/05/21 00:52:53;;;;;;;23.23;9.15;;;19.00;83.80;;;;;;5112459;28;20050;-69
2022/05/21 00:55:58;;;;;;;15.50;7.75;;;18.90;84.10;;;;;;5114493;28;20050;-69
2022/05/21 01:02:35;;;;;;;17.17;7.75;;;18.90;84.50;;;;;;5113692;28;20039;-69
2022/05/21 01:05:39;;;;;;;22.50;8.77;;;18.80;84.80;;;;;;5113601;28;20042;-69
2022/05/21 01:08:43;;;;;;;22.45;8.50;;;18.60;85.70;;;;;;5114497;28;20042;-69
2022/05/21 01:11:47;;;;;;;18.90;7.88;;;18.60;86.00;;;;;;5113544;28;20038;-69
2022/05/21 01:14:55;;;;;;;25.80;11.23;;;18.60;85.90;;;;;;5114354;28;20042;-69
2022/05/21 01:18:01;;;;;;;21.40;9.77;;;18.40;86.20;;;;;;5114273;28;20039;-69
2022/05/21 01:21:07;;;;;;;22.83;8.70;;;18.40;86.70;;;;;;5114144;28;20506;-69
2022/05/21 01:24:11;;;;;;;18.65;7.90;;;18.20;86.80;;;;;;5114303;28;20070;-69
2022/05/21 01:27:15;;;;;;;15.50;7.90;;;18.30;87.00;;;;;;5114087;28;20113;-69
2022/05/21 01:30:39;;;;;;;21.10;8.40;;;18.50;86.50;;;;;;5114289;28;20039;-69
2022/05/21 01:33:47;;;;;;;16.55;7.80;;;18.60;85.60;;;;;;5113741;28;20038;-69
2022/05/21 01:36:52;;;;;;;19.55;8.80;;;18.70;85.20;;;;;;5113791;28;20089;-69
2022/05/21 01:39:56;;;;;;;29.27;12.90;;;18.80;84.80;;;;;;5114314;28;20050;-69
2022/05/21 01:46:23;;;;;;;21.08;9.80;;;18.50;85.50;;;;;;5113574;28;20039;-68
2022/05/21 01:49:30;;;;;;;17.90;8.55;;;18.40;86.70;;;;;;5113631;28;20050;-69
2022/05/21 01:52:34;;;;;;;19.67;9.40;;;18.10;87.00;;;;;;5113597;28;20399;-68
2022/05/21 01:55:39;;;;;;;26.67;10.20;;;18.00;87.70;;;;;;5112678;28;20430;-68
2022/05/21 01:58:44;;;;;;;18.90;9.45;;;17.90;88.20;;;;;;5112776;28;20047;-68
2022/05/21 02:01:48;;;;;;;22.63;10.75;;;17.80;89.00;;;;;;5113708;28;20042;-68
2022/05/21 02:04:53;;;;;;;27.65;11.60;;;17.90;89.20;;;;;;5113426;28;20051;-69
2022/05/21 02:07:56;;;;;;;24.85;11.75;;;18.00;88.00;;;;;;5113107;28;20070;-68
2022/05/21 02:11:00;;;;;;;24.23;9.38;;;17.90;87.10;;;;;;5113530;28;20097;-69
2022/05/21 02:14:05;;;;;;;23.27;8.35;;;17.60;86.80;;;;;;5113099;28;20046;-69
2022/05/21 02:17:09;;;;;;;28.05;8.65;;;17.50;88.20;;;;;;5113355;28;20046;-69
2022/05/21 02:20:13;;;;;;;12.90;7.90;;;17.60;86.60;;;;;;5112333;28;20046;-69
2022/05/21 02:23:21;;;;;;;22.27;8.77;;;17.60;86.60;;;;;;5113098;28;20102;-69
2022/05/21 02:26:25;;;;;;;17.80;7.68;;;17.60;87.00;;;;;;5112998;28;20121;-70
2022/05/21 02:29:29;;;;;;;16.23;7.82;;;17.80;86.20;;;;;;5112230;28;20054;-70
2022/05/21 02:32:33;;;;;;;18.98;6.50;;;17.90;85.30;;;;;;5112206;28;20043;-69
2022/05/21 02:35:37;;;;;;;16.75;6.72;;;18.00;85.20;;;;;;5112743;28;20038;-69
2022/05/21 02:42:04;;;;;;;13.02;6.07;;;18.10;85.00;;;;;;5112572;28;20493;-70
2022/05/21 02:45:13;;;;;;;8.20;5.57;;;18.10;84.50;;;;;;5112599;28;20047;-69
2022/05/21 02:48:17;;;;;;;17.55;6.45;;;18.10;84.20;;;;;;5111520;28;20513;-69
2022/05/21 02:51:21;;;;;;;15.50;5.53;;;18.00;84.80;;;;;;5112676;28;20521;-70
2022/05/21 02:54:25;;;;;;;9.10;5.53;;;18.00;84.90;;;;;;5112200;28;20047;-69
2022/05/21 02:57:29;;;;;;;14.18;5.80;;;18.00;84.30;;;;;;5112267;28;20054;-69
2022/05/21 03:00:33;;;;;;;10.95;5.22;;;18.10;83.70;;;;;;5112228;28;20489;-70
2022/05/21 03:03:37;;;;;;;11.80;4.95;;;18.10;83.60;;;;;;5112247;28;20498;-70
2022/05/21 03:06:41;;;;;;;13.50;5.38;;;18.10;84.00;;;;;;5112235;28;20042;-69
2022/05/21 03:13:08;;;;;;;15.30;5.60;;;18.00;84.10;;;;;;5111897;28;20047;-69
2022/05/21 03:16:13;;;;;;;13.00;4.95;;;17.80;84.80;;;;;;5110694;28;20046;-69
2022/05/21 03:19:18;;;;;;;13.73;5.75;;;17.80;85.00;;;;;;5111426;28;20537;-70
2022/05/21 03:22:22;;;;;;;14.30;5.45;;;17.70;84.90;;;;;;5112131;28;20066;-69
2022/05/21 03:25:26;;;;;;;13.88;5.53;;;17.60;85.50;;;;;;5112077;28;20046;-69
2022/05/21 03:28:30;;;;;;;16.20;5.97;;;17.50;85.70;;;;;;5111526;28;20505;-68
2022/05/21 03:31:34;;;;;;;14.68;6.20;;;17.50;86.90;;;;;;5111812;28;20054;-68
2022/05/21 03:34:38;;;;;;;16.20;7.13;;;17.60;86.30;;;;;;5111385;28;20051;-68
2022/05/21 03:37:43;;;;;;;11.85;6.57;;;17.70;86.30;;;;;;5111823;28;20038;-68
2022/05/21 03:40:47;;;;;;;16.65;7.75;;;17.80;85.80;;;;;;5111699;28;20050;-69
2022/05/21 03:43:52;;;;;;;15.55;7.82;;;17.80;86.00;;;;;;5111747;28;20046;-69
2022/05/21 03:46:58;;;;;;;12.50;7.53;;;17.80;86.20;;;;;;5112027;28;20058;-68
2022/05/21 03:50:03;;;;;;;14.55;8.20;;;18.00;85.90;;;;;;5111596;28;20037;-68
2022/05/21 03:53:09;;;;;;;13.70;8.18;;;17.90;86.20;;;;;;5111355;28;20054;-69
2022/05/21 03:56:13;;;;;;;14.95;8.13;;;17.90;86.50;;;;;;5111204;28;20058;-68
2022/05/21 03:59:18;;;;;;;15.57;9.77;;;17.80;86.30;;;;;;5111507;28;20054;-70
2022/05/21 04:02:22;;;;;;;18.95;10.23;;;17.90;85.80;;;;;;5111697;28;20043;-70
2022/05/21 04:05:26;;;;;;;19.02;10.30;;;17.70;86.40;;;;;;5111295;28;20043;-68
2022/05/21 04:08:30;;;;;;;22.35;9.60;;;17.30;87.00;;;;;;5111206;28;20055;-70
2022/05/21 04:11:33;;;;;;;20.60;9.75;;;17.20;89.20;;;;;;5111678;28;20039;-69
2022/05/21 04:14:37;;;;;;;18.75;10.18;;;17.20;89.00;;;;;;5111188;28;20046;-69
2022/05/21 04:17:42;;;;;;;21.10;10.13;;;17.30;89.00;;;;;;5110549;28;20055;-69
2022/05/21 04:20:46;;;;;;;25.23;10.07;;;17.20;89.40;;;;;;5111269;28;20043;-70
2022/05/21 04:23:50;;;;;;;20.50;9.90;;;17.30;89.30;;;;;;5111556;28;20038;-62
2022/05/21 04:26:54;;;;;;;21.40;10.05;;;17.50;89.20;;;;;;5110928;28;20047;-62
2022/05/21 04:29:58;;;;;;;23.23;10.93;;;17.70;88.70;;;;;;5115452;28;20047;-63
2022/05/21 04:33:02;;;;;;;24.42;10.10;;;17.90;88.30;;;;;;5114968;28;20058;-64
2022/05/21 04:36:18;;;;;;;21.08;11.15;;;18.30;87.00;;;;;;5115241;28;20043;-62
2022/05/21 04:39:22;;;;;;;26.60;11.35;;;19.00;85.20;;;;;;5115304;28;20046;-63
2022/05/21 04:42:29;;;;;;;16.50;10.52;;;19.70;82.60;;;;;;5115105;28;20039;-61
2022/05/21 04:45:33;;;;;;;26.67;9.70;;;20.60;80.00;;;;;;5114993;28;20042;-62
2022/05/21 04:48:38;;;;;;;26.92;9.75;;;21.30;77.70;;;;;;5114753;28;20125;-62
2022/05/21 04:51:43;;;;;;;26.55;11.48;;;21.40;76.70;;;;;;5114578;28;20394;-62
2022/05/21 04:54:47;;;;;;;29.88;10.82;;;21.40;77.00;;;;;;5114678;28;20051;-63
2022/05/21 04:57:50;;;;;;;32.85;11.65;;;21.40;76.50;;;;;;5114760;28;20043;-62
2022/05/21 05:00:54;;;;;;;28.60;12.27;;;21.60;76.00;;;;;;5114410;28;20047;-63
2022/05/21 05:03:59;;;;;;;29.90;10.95;;;21.60;77.40;;;;;;5114702;28;20042;-63
2022/05/21 05:07:08;;;;;;;27.02;10.13;;;21.80;76.90;;;;;;5114297;28;20604;-62
2022/05/21 05:10:12;;;;;;;28.05;11.77;;;22.00;76.30;;;;;;5114248;28;20051;-62
2022/05/21 05:13:17;;;;;;;28.00;10.40;;;21.70;76.90;;;;;;5114097;28;20399;-62
2022/05/21 05:16:21;;;;;;;24.17;10.15;;;21.40;78.00;;;;;;5114625;28;20054;-62
2022/05/21 05:19:25;;;;;;;22.17;9.80;;;21.40;78.40;;;;;;5114193;28;20055;-62
2022/05/21 05:22:29;;;;;;;22.70;9.95;;;21.60;78.10;;;;;;5113986;28;20043;-62
2022/05/21 05:25:33;;;;;;;20.50;9.35;;;22.10;76.90;;;;;;5114038;28;20094;-62
2022/05/21 05:28:40;;;;;;;27.70;9.88;;;22.20;76.80;;;;;;5113881;28;20505;-63
2022/05/21 05:31:44;;;;;;;22.25;10.57;;;22.30;76.10;;;;;;5113148;28;20501;-62
2022/05/21 05:34:48;;;;;;;32.03;10.20;;;22.40;77.00;;;;;;5113861;28;20050;-61
2022/05/21 05:37:52;;;;;;;20.75;9.18;;;22.80;76.30;;;;;;5113767;28;20096;-62
2022/05/21 05:40:59;;;;;;;22.88;9.07;;;23.10;75.70;;;;;;5113825;28;20051;-63
2022/05/21 05:44:04;;;;;;;30.02;9.75;;;23.10;76.00;;;;;;5113723;28;20656;-63
2022/05/21 05:47:08;;;;;;;19.35;8.20;;;23.20;75.70;;;;;;5113824;28;20501;-62
2022/05/21 05:50:12;;;;;;;17.10;6.97;;;23.00;75.20;;;;;;5113763;28;20042;-62
2022/05/21 05:53:16;;;;;;;20.33;8.32;;;22.60;76.10;;;;;;5113326;28;20051;-62
2022/05/21 05:56:21;;;;;;;15.50;6.65;;;22.80;76.60;;;;;;5113121;28;20502;-63
2022/05/21 06:02:59;;;;;;;18.60;6.28;;;23.40;74.80;;;;;;5113257;28;20038;-63
2022/05/21 06:06:04;;;;;;;18.95;6.90;;;23.30;74.50;;;;;;5113436;28;20050;-62
2022/05/21 06:09:08;;;;;;;23.98;6.43;;;23.40;74.30;;;;;;5113492;28;20050;-62
2022/05/21 06:12:12;;;;;;;24.25;6.60;;;23.40;74.80;;;;;;5113318;28;20051;-63
2022/05/21 06:15:16;;;;;;;16.58;6.10;;;23.60;73.90;;;;;;5112551;28;20047;-63
2022/05/21 06:18:21;;;;;;;17.90;7.20;;;23.40;74.30;;;;;;5113137;28;20470;-62
2022/05/21 06:21:25;;;;;;;25.83;6.40;;;23.40;74.90;;;;;;5113286;28;20050;-64
2022/05/21 06:24:35;;;;;;;19.65;5.47;;;23.90;74.20;;;;;;5113251;28;20051;-65
2022/05/21 06:27:39;;;;;;;19.10;5.82;;;24.60;72.60;;;;;;5112974;28;20042;-66
2022/05/21 06:30:44;;;;;;;14.82;5.40;;;24.90;70.80;;;;;;5113086;28;20042;-64
2022/05/21 06:33:49;;;;;;;24.15;6.47;;;25.10;71.20;;;;;;5112547;28;20513;-62
2022/05/21 06:36:53;;;;;;;19.35;5.10;;;25.30;70.50;;;;;;5112314;28;20058;-64
2022/05/21 06:39:57;;;;;;;14.55;5.40;;;25.50;70.40;;;;;;5111038;28;20440;-65
2022/05/21 06:43:02;;;;;;;18.70;4.80;;;25.90;69.70;;;;;;5112434;28;20055;-64
2022/05/21 06:46:06;;;;;;;14.82;4.90;;;26.10;69.30;;;;;;5111808;28;20040;-63
2022/05/21 06:49:10;;;;;;;22.42;5.13;;;26.00;69.30;;;;;;5111973;28;20054;-64
2022/05/21 06:52:14;;;;;;;15.60;6.03;;;26.10;69.10;;;;;;5111191;28;20489;-64
2022/05/21 06:55:18;;;;;;;14.18;5.00;;;26.10;69.50;;;;;;5111948;28;20071;-64
2022/05/21 06:58:22;;;;;;;16.05;5.57;;;26.30;69.30;;;;;;5111643;28;20042;-65
2022/05/21 07:01:27;;;;;;;20.95;4.57;;;26.50;68.20;;;;;;5111497;28;20367;-65
2022/05/21 07:07:54;;;;;;;26.95;4.68;;;26.80;66.80;;;;;;5112044;28;20531;-65
2022/05/21 07:10:59;;;;;;;44.42;4.97;;;27.00;66.40;;;;;;5111845;28;20042;-66
2022/05/21 07:14:03;;;;;;;20.42;3.92;;;26.90;66.90;;;;;;5111804;28;20043;-66
2022/05/21 07:17:07;;;;;;;16.15;4.55;;;26.80;67.20;;;;;;5112164;28;20050;-65
2022/05/21 07:20:21;;;;;;;16.35;4.00;;;27.00;67.30;;;;;;5111910;28;20050;-65
2022/05/21 07:23:27;;;;;;;12.82;4.03;;;27.40;66.10;;;;;;5111925;28;20042;-66
2022/05/21 07:26:31;;;;;;;9.80;4.20;;;27.30;66.10;;;;;;5111949;28;20042;-66
2022/05/21 07:29:36;;;;;;;25.33;4.25;;;27.30;66.30;;;;;;5111540;28;20043;-65
2022/05/21 07:32:41;;;;;;;13.90;4.00;;;27.50;66.00;;;;;;5111388;28;20532;-67
2022/05/21 07:35:46;;;;;;;12.68;3.60;;;27.80;65.00;;;;;;5087860;28;20054;-66
2022/05/21 07:38:50;;;;;;;16.85;4.43;;;27.80;65.20;;;;;;5110693;28;20612;-66
2022/05/21 07:41:57;;;;;;;20.10;4.28;;;28.10;65.70;;;;;;5111624;28;20042;-65
2022/05/21 07:45:00;;;;;;;12.48;3.75;;;28.20;65.70;;;;;;5111676;28;20047;-65
2022/05/21 07:48:06;;;;;;;19.38;4.65;;;28.30;64.60;;;;;;5110718;28;20050;-64
2022/05/21 07:51:10;;;;;;;15.05;3.70;;;28.40;64.20;;;;;;5111757;28;20046;-65
2022/05/21 07:54:14;;;;;;;12.52;4.35;;;28.40;64.20;;;;;;5111345;28;20486;-65
2022/05/21 07:57:18;;;;;;;12.35;4.65;;;28.40;64.30;;;;;;5111456;28;20050;-65
2022/05/21 08:00:22;;;;;;;15.75;5.15;;;28.20;64.50;;;;;;5111465;28;20035;-65
2022/05/21 08:03:29;;;;;;;14.60;4.60;;;28.10;64.70;;;;;;5115365;28;20042;-66
2022/05/21 08:06:34;;;;;;;22.25;4.63;;;28.00;64.70;;;;;;5115653;28;20046;-64
2022/05/21 08:09:39;;;;;;;14.73;4.30;;;27.80;65.60;;;;;;5115628;28;20403;-65
2022/05/21 08:12:43;;;;;;;22.85;4.65;;;27.90;65.30;;;;;;5115183;28;20051;-65
2022/05/21 08:15:47;;;;;;;13.73;4.70;;;28.00;65.00;;;;;;5115457;28;20035;-65
2022/05/21 08:18:51;;;;;;;20.35;4.25;;;28.30;64.20;;;;;;5115201;28;20042;-65
2022/05/21 08:26:56;;;;;;;21.02;4.50;;;28.60;63.80;;;;;;5115554;28;20046;-65
2022/05/21 08:28:45;;;;;;;16.83;4.95;;;28.60;64.10;;;;;;5114243;28;20046;-66
2022/05/21 08:31:50;;;;;;;28.08;5.43;;;28.70;63.60;;;;;;5115255;28;20038;-65
2022/05/21 08:34:59;;;;;;;16.77;3.80;;;28.70;63.80;;;;;;5115062;28;20106;-66
2022/05/21 08:38:03;;;;;;;14.15;4.00;;;28.70;63.80;;;;;;5114969;28;20039;-65
2022/05/21 08:41:21;;;;;;;12.82;4.22;;;28.70;64.30;;;;;;5115273;28;20054;-65
2022/05/21 08:44:46;;;;;;;13.63;3.83;;;28.70;63.20;;;;;;5114920;28;20047;-65
2022/05/21 08:48:02;;;;;;;12.18;4.13;;;28.70;63.00;;;;;;5114627;28;20051;-65
2022/05/21 08:51:16;;;;;;;8.90;2.83;;;28.80;62.50;;;;;;5113963;28;20510;-63
2022/05/21 08:54:27;;;;;;;15.15;4.55;;;28.80;61.80;;;;;;5112688;28;20502;-65
2022/05/21 08:57:46;;;;;;;;;;;28.90;62.00;;;;;;5114636;28;20055;-64
2022/05/21 09:00:50;;;;;;;13.07;3.83;;;28.90;61.60;;;;;;5114465;28;19915;-66
2022/05/21 09:03:56;;;;;;;8.52;3.50;;;28.80;60.70;;;;;;5113974;28;20047;-66
2022/05/21 09:07:14;;;;;;;24.92;14.88;;;28.90;61.30;;;;;;5113794;28;20035;-65
2022/05/21 09:10:33;;;;;;;12.93;3.58;;;29.00;61.10;;;;;;5113965;28;20058;-64
2022/05/21 09:14:09;;;;;;;15.00;3.80;;;29.00;60.30;;;;;;5113867;28;20388;-64
2022/05/21 09:17:19;;;;;;;9.80;3.72;;;29.10;60.80;;;;;;5090426;27;20054;-68
2022/05/21 09:20:23;;;;;;;7.22;3.30;;;29.10;58.90;;;;;;5114519;28;20394;-64
2022/05/21 09:23:45;;;;;;;9.07;2.95;;;29.00;59.30;;;;;;5114155;28;20043;-64
2022/05/21 09:26:52;;;;;;;12.95;3.60;;;29.10;59.90;;;;;;5114348;28;20036;-65
2022/05/21 09:30:17;;;;;;;9.35;3.38;;;29.00;59.90;;;;;;5114253;28;20417;-64
2022/05/21 09:33:24;;;;;;;9.98;3.70;;;29.10;59.70;;;;;;5114078;28;20044;-65
2022/05/21 09:36:35;;;;;;;8.43;3.20;;;29.10;58.80;;;;;;5114462;28;20039;-64
2022/05/21 09:39:40;;;;;;;8.82;3.42;;;29.20;59.00;;;;;;5113536;28;20036;-65
2022/05/21 09:46:24;;;;;;;12.68;3.30;;;29.30;57.70;;;;;;5113787;28;20490;-65
2022/05/21 09:49:29;;;;;;;8.43;3.60;;;29.30;57.80;;;;;;5113602;28;20596;-65
2022/05/21 09:52:35;;;;;;;9.55;3.53;;;29.30;57.70;;;;;;5113450;28;20032;-64
2022/05/21 09:55:39;;;;;;;5.95;2.80;;;29.30;56.60;;;;;;5113369;28;20044;-65
2022/05/21 10:27:48;;;;;;;12.77;3.95;;;29.20;61.20;;;;;;5108310;27;20441;-63
2022/05/21 10:30:52;;;;;;;13.50;3.45;;;29.10;63.70;;;;;;5108458;28;20053;-63
2022/05/21 10:34:16;;;;;;;12.45;3.80;;;29.10;64.00;;;;;;5108484;28;20046;-63
2022/05/21 10:37:57;;;;;;;7.22;3.30;;;29.10;65.00;;;;;;5108174;28;20047;-63
2022/05/21 10:41:04;;;;;;;10.63;3.20;;;29.00;65.40;;;;;;5095783;28;20376;-63
2022/05/21 10:44:32;;;;;;;9.13;2.97;;;29.00;66.20;;;;;;5095743;28;20115;-63
2022/05/21 10:48:15;;;;;;;17.05;3.70;;;28.90;66.90;;;;;;5108185;28;20044;-63
2022/05/21 10:51:38;;;;;;;10.25;3.65;;;28.90;66.50;;;;;;5045363;28;20145;-63
2022/05/21 10:54:52;;;;;;;17.48;3.55;;;28.80;66.20;;;;;;5052169;28;20148;-63
2022/05/21 10:58:13;;;;;;;13.45;3.63;;;28.70;65.80;;;;;;5107780;28;20101;-63
2022/05/21 11:01:27;;;;;;;10.65;2.63;;;28.60;66.70;;;;;;5107619;28;20398;-64
2022/05/21 11:04:49;;;;;;;8.57;2.95;;;28.60;66.40;;;;;;5107531;28;20043;-62
2022/05/21 11:08:08;;;;;;;13.68;3.05;;;28.50;67.20;;;;;;5095000;28;20039;-62
2022/05/21 11:11:37;;;;;;;9.73;3.13;;;28.40;67.70;;;;;;5107758;28;20046;-63
2022/05/21 11:14:49;;;;;;;15.52;3.65;;;28.30;69.00;;;;;;5107734;28;20028;-63
2022/05/21 11:18:16;;;;;;;11.73;4.10;;;28.20;68.20;;;;;;5087406;28;20384;-63
2022/05/21 11:21:41;;;;;;;11.75;3.00;;;28.10;68.90;;;;;;5087264;28;20047;-63
2022/05/21 11:25:12;;;;;;;12.70;3.80;;;28.10;69.40;;;;;;5087060;28;20055;-63
2022/05/21 11:28:32;;;;;;;11.32;3.55;;;28.10;69.40;;;;;;5075079;28;20059;-65
2022/05/21 11:38:50;;;;;;;15.25;4.70;;;28.00;70.60;;;;;;5073199;28;20506;-63
2022/05/21 11:42:07;;;;;;;20.50;3.78;;;27.90;70.30;;;;;;5073284;28;20039;-63
2022/05/21 11:45:22;;;;;;;11.73;3.13;;;27.90;70.30;;;;;;5073264;28;20047;-63
2022/05/21 11:48:30;;;;;;;13.95;3.15;;;27.90;69.80;;;;;;5073503;28;20047;-62
2022/05/21 11:51:34;;;;;;;9.88;3.00;;;27.90;70.30;;;;;;5073230;28;20051;-63
2022/05/21 11:54:47;;;;;;;16.88;3.97;;;27.90;70.60;;;;;;5073040;28;20036;-63
2022/05/21 11:58:02;;;;;;;13.60;3.10;;;27.80;70.80;;;;;;5072857;28;20506;-63
2022/05/21 12:01:06;;;;;;;28.33;4.63;;;27.70;71.20;;;;;;5072937;28;20052;-63
2022/05/21 12:04:40;;;;;;;15.25;3.95;;;27.70;71.10;;;;;;5073249;28;20143;-63
2022/05/21 12:07:44;;;;;;;18.63;4.03;;;27.60;71.10;;;;;;5073101;28;20056;-63
2022/05/21 12:11:10;;;;;;;25.90;4.00;;;27.60;71.50;;;;;;5073001;28;20040;-63
2022/05/21 12:14:25;;;;;;;12.02;3.25;;;27.60;71.10;;;;;;5072836;28;20071;-62
2022/05/21 12:17:51;;;;;;;12.32;3.50;;;27.60;71.40;;;;;;5072673;28;20039;-62
2022/05/21 12:20:55;;;;;;;13.65;3.35;;;27.50;71.30;;;;;;5072875;28;20439;-62
2022/05/21 12:24:05;;;;;;;10.40;3.22;;;27.40;71.60;;;;;;5072420;28;20044;-63
2022/05/21 12:27:26;;;;;;;18.67;3.83;;;27.40;71.60;;;;;;5072178;28;20048;-63
2022/05/21 12:30:31;;;;;;;15.68;3.70;;;27.40;70.50;;;;;;5072549;28;20068;-62
2022/05/21 12:33:44;;;;;;;12.68;3.55;;;27.40;70.20;;;;;;5072569;28;20051;-62
2022/05/21 12:37:07;;;;;;;10.90;3.08;;;27.40;69.60;;;;;;5072604;28;20047;-62
2022/05/21 12:40:29;;;;;;;10.15;3.30;;;27.40;70.00;;;;;;5070681;28;20052;-63
2022/05/21 12:43:47;;;;;;;11.43;3.20;;;27.30;70.10;;;;;;5072204;28;20376;-63
2022/05/21 12:46:52;;;;;;;11.93;3.80;;;27.30;70.10;;;;;;5071965;28;20063;-63
2022/05/21 12:49:57;;;;;;;7.47;2.67;;;27.40;69.70;;;;;;5072196;28;20044;-63
2022/05/21 12:53:02;;;;;;;8.40;3.95;;;27.40;70.00;;;;;;5071875;28;20032;-62
2022/05/21 12:56:15;;;;;;;9.95;3.20;;;27.40;70.00;;;;;;5059504;28;20038;-63
2022/05/21 12:59:30;;;;;;;9.68;3.13;;;27.40;69.50;;;;;;5071743;28;20480;-63
2022/05/21 13:02:43;;;;;;;10.02;3.75;;;27.40;69.70;;;;;;5071827;28;20423;-63
2022/05/21 13:05:47;;;;;;;10.23;3.00;;;27.30;69.10;;;;;;5071714;28;20067;-63
2022/05/21 13:08:51;;;;;;;16.15;3.35;;;27.30;69.40;;;;;;5071648;28;20047;-63
2022/05/21 13:11:56;;;;;;;9.95;3.13;;;27.20;68.90;;;;;;5071143;28;20063;-63
2022/05/21 13:15:00;;;;;;;11.52;3.05;;;27.20;69.70;;;;;;5071496;28;20400;-63
2022/05/21 13:18:41;;;;;;;14.48;3.13;;;27.20;68.80;;;;;;5071305;28;20044;-64
2022/05/21 13:22:04;;;;;;;11.65;3.20;;;27.20;69.30;;;;;;5071359;28;20047;-63
2022/05/21 13:25:15;;;;;;;15.18;3.60;;;27.10;69.60;;;;;;5070665;28;20035;-63
2022/05/21 13:28:22;;;;;;;10.52;3.33;;;27.10;70.40;;;;;;5058615;28;20047;-63
2022/05/21 13:31:26;;;;;;;19.48;4.05;;;27.00;70.30;;;;;;5071218;28;20048;-63
2022/05/21 13:34:35;;;;;;;10.93;3.20;;;27.00;69.80;;;;;;5071305;28;20396;-63
2022/05/21 13:37:42;;;;;;;10.25;3.70;;;27.00;70.60;;;;;;5071074;28;20507;-63
2022/05/21 13:40:53;;;;;;;9.98;3.70;;;27.00;69.50;;;;;;5071255;28;20043;-63
2022/05/21 13:44:00;;;;;;;14.02;3.45;;;27.00;69.00;;;;;;5071471;28;20044;-63
2022/05/21 13:47:27;;;;;;;9.35;2.88;;;26.90;68.50;;;;;;5058519;28;20146;-63
2022/05/21 13:50:32;;;;;;;15.70;4.32;;;26.90;69.40;;;;;;5070693;28;20070;-64
2022/05/21 13:53:38;;;;;;;10.13;3.05;;;26.90;69.20;;;;;;5071311;28;20063;-64
2022/05/21 13:56:43;;;;;;;16.02;3.40;;;26.90;69.20;;;;;;5071157;28;20043;-64
2022/05/21 14:00:06;;;;;;;6.40;2.63;;;27.00;68.50;;;;;;5071115;28;20059;-64
2022/05/21 14:03:43;;;;;;;12.93;3.45;;;27.00;68.70;;;;;;5070897;28;20048;-64
2022/05/21 14:06:47;;;;;;;8.80;2.97;;;27.00;68.60;;;;;;5070605;28;20161;-64
2022/05/21 14:10:06;;;;;;;8.07;2.83;;;27.10;68.50;;;;;;5070890;28;20369;-64
2022/05/21 14:13:37;;;;;;;10.80;3.42;;;27.00;68.90;;;;;;5070806;28;20043;-64
2022/05/21 14:16:42;;;;;;;;;;;27.10;68.40;;;;;;5070916;28;20036;-65
2022/05/21 14:20:28;;;;;;;11.38;3.15;;;27.10;68.60;;;;;;5070554;28;20067;-64
2022/05/21 14:23:40;;;;;;;9.85;3.20;;;27.10;68.60;;;;;;5070637;28;20051;-64
2022/05/21 14:27:15;;;;;;;5.20;2.55;;;27.10;68.50;;;;;;5070281;28;20055;-65
2022/05/21 14:30:30;;;;;;;15.00;3.70;;;27.00;67.90;;;;;;5070476;28;20033;-64
2022/05/21 14:33:51;;;;;;;9.45;2.67;;;27.00;68.50;;;;;;5070556;28;20396;-64
2022/05/21 14:36:55;;;;;;;10.52;3.20;;;27.00;68.10;;;;;;5070846;28;20094;-64
2022/05/21 14:39:59;;;;;;;7.95;3.17;;;26.90;67.70;;;;;;5070857;28;20040;-64
2022/05/21 14:43:07;;;;;;;20.27;3.72;;;26.90;68.10;;;;;;5058258;28;20515;-64
2022/05/21 14:49:38;;;;;;;10.60;3.42;;;26.80;68.70;;;;;;5061867;28;20043;-64
2022/05/21 14:52:52;;;;;;;8.20;3.30;;;26.80;68.10;;;;;;5070347;28;20044;-63
2022/05/21 14:55:56;;;;;;;12.20;3.15;;;26.70;68.20;;;;;;5070103;28;20047;-63
2022/05/21 14:59:01;;;;;;;19.58;4.03;;;26.70;68.10;;;;;;5058179;28;20498;-63
2022/05/21 15:02:07;;;;;;;12.30;3.00;;;26.70;68.10;;;;;;5071099;28;20056;-63
2022/05/21 15:05:12;;;;;;;11.32;3.10;;;26.60;67.60;;;;;;5073819;28;20043;-64
2022/05/21 15:08:33;;;;;;;9.40;3.88;;;26.60;67.80;;;;;;5073940;28;20549;-64
2022/05/21 15:11:37;;;;;;;;;;;26.60;68.20;;;;;;5074494;28;20471;-64
2022/05/21 15:14:41;;;;;;;10.50;2.88;;;26.50;67.40;;;;;;5073685;28;19931;-64
2022/05/21 15:17:46;;;;;;;14.05;3.15;;;26.50;67.60;;;;;;5073653;28;20044;-64
2022/05/21 15:20:50;;;;;;;10.88;3.05;;;26.50;67.50;;;;;;5074178;28;20051;-64
2022/05/21 15:23:58;;;;;;;11.32;2.88;;;26.40;67.20;;;;;;5073801;28;20392;-64
2022/05/21 15:27:02;;;;;;;8.68;2.55;;;26.40;67.60;;;;;;5073199;28;20051;-63
2022/05/21 15:30:07;;;;;;;11.02;3.38;;;26.40;68.30;;;;;;5073508;28;20047;-64
2022/05/21 15:33:13;;;;;;;9.20;2.80;;;26.40;67.70;;;;;;5073971;28;20051;-64
2022/05/21 15:36:17;;;;;;;12.82;3.10;;;26.30;67.90;;;;;;5073468;28;20051;-64
2022/05/21 15:39:21;;;;;;;10.93;3.47;;;26.30;68.20;;;;;;5073487;28;20040;-63
2022/05/21 15:42:25;;;;;;;7.28;2.83;;;26.30;68.40;;;;;;5073424;28;20051;-64
2022/05/21 15:45:29;;;;;;;13.13;3.55;;;26.30;68.10;;;;;;5060873;28;20404;-64
2022/05/21 15:48:33;;;;;;;15.80;3.30;;;26.30;68.80;;;;;;5073106;28;20062;-64
2022/05/21 15:51:39;;;;;;;11.40;3.30;;;26.20;69.10;;;;;;5073303;28;20036;-65
2022/05/21 15:54:43;;;;;;;12.77;3.25;;;26.20;69.00;;;;;;5073102;28;20052;-65
2022/05/21 15:57:48;;;;;;;10.60;3.10;;;26.20;69.20;;;;;;5073173;28;20036;-64
2022/05/21 16:00:54;;;;;;;9.40;2.80;;;26.10;69.50;;;;;;5073021;28;20047;-64
2022/05/21 16:03:58;;;;;;;10.82;3.38;;;26.10;70.00;;;;;;5072781;28;20098;-64
2022/05/21 16:07:03;;;;;;;10.40;2.60;;;26.10;69.50;;;;;;5072862;28;20071;-64
2022/05/21 16:10:08;;;;;;;14.40;3.88;;;26.10;69.50;;;;;;5072736;28;20047;-63
2022/05/21 16:13:13;;;;;;;17.67;4.70;;;26.00;69.50;;;;;;5072845;28;20655;-64
2022/05/21 16:16:18;;;;;;;13.73;2.97;;;25.90;69.60;;;;;;5072794;28;20044;-65
2022/05/21 16:19:22;;;;;;;10.05;3.50;;;25.80;70.00;;;;;;5072997;28;20047;-64
2022/05/21 16:22:28;;;;;;;11.13;3.38;;;25.90;70.30;;;;;;5072701;28;20066;-64
2022/05/21 16:25:32;;;;;;;14.45;3.53;;;25.80;70.20;;;;;;5072512;28;20056;-64
2022/05/21 16:28:39;;;;;;;10.60;3.67;;;25.90;70.60;;;;;;5072493;28;20048;-64
2022/05/21 16:31:43;;;;;;;13.57;3.38;;;25.80;70.80;;;;;;5060434;28;20507;-63
2022/05/21 16:34:47;;;;;;;21.67;3.60;;;25.80;71.00;;;;;;5072673;28;20044;-65
2022/05/21 16:37:51;;;;;;;11.90;3.78;;;25.80;71.60;;;;;;5072227;28;20396;-64
2022/05/21 16:40:55;;;;;;;14.02;3.75;;;25.80;71.70;;;;;;5072518;28;20825;-65
2022/05/21 16:44:00;;;;;;;11.05;3.33;;;25.80;71.30;;;;;;5072433;28;20048;-65
2022/05/21 16:47:04;;;;;;;12.57;4.28;;;25.70;71.00;;;;;;5072296;28;20059;-65
2022/05/21 16:50:11;;;;;;;10.43;3.17;;;25.70;71.20;;;;;;5060229;28;20048;-65
2022/05/21 16:53:15;;;;;;;12.57;3.42;;;25.60;70.90;;;;;;5072124;28;20733;-64
2022/05/21 16:56:20;;;;;;;15.63;3.95;;;25.60;71.00;;;;;;5071905;28;20404;-65
2022/05/21 16:59:26;;;;;;;13.27;4.43;;;25.60;71.00;;;;;;5060019;28;20043;-64
2022/05/21 17:02:31;;;;;;;13.30;3.78;;;25.60;70.50;;;;;;5072192;28;20107;-64
2022/05/21 17:05:35;;;;;;;12.35;3.50;;;25.50;70.90;;;;;;5071623;28;20040;-66
2022/05/21 17:08:41;;;;;;;15.80;3.42;;;25.50;70.40;;;;;;5071831;28;20114;-64
2022/05/21 17:11:48;;;;;;;10.52;3.63;;;25.40;69.80;;;;;;5071523;28;20063;-64
2022/05/21 17:14:52;;;;;;;14.13;3.55;;;25.40;69.60;;;;;;5071771;28;20507;-65